sensor_id;sensor_type;location;lat;lon;timestamp;P1;durP1;ratioP1;P2;durP2;ratioP2
66575;SDS011;53428;47.686;16.584;2024-03-06T00:03:04;49.63;;;24.08;;
66575;SDS011;53428;47.686;16.584;2024-03-06T00:08:04;45.03;;;20.63;;
66575;SDS011;53428;47.686;16.584;2024-03-06T00:13:03;38.65;;;19.50;;
66575;SDS011;53428;47.686;16.584;2024-03-06T00:18:03;37.67;;;18.38;;
66575;SDS011;53428;47.686;16.584;2024-03-06T00:23:03;39.60;;;20.70;;
66575;SDS011;53428;47.686;16.584;2024-03-06T00:28:03;37.63;;;19.35;;
66575;SDS011;53428;47.686;16.584;2024-03-06T00:33:02;38.13;;;20.88;;
66575;SDS011;53428;47.686;16.584;2024-03-06T00:38:01;39.80;;;21.00;;
66575;SDS011;53428;47.686;16.584;2024-03-06T00:43:01;39.97;;;19.25;;
66575;SDS011;53428;47.686;16.584;2024-03-06T00:48:01;38.17;;;20.35;;
66575;SDS011;53428;47.686;16.584;2024-03-06T00:53:00;37.90;;;18.85;;
66575;SDS011;53428;47.686;16.584;2024-03-06T00:57:59;37.33;;;18.33;;
66575;SDS011;53428;47.686;16.584;2024-03-06T01:02:58;37.42;;;18.92;;
66575;SDS011;53428;47.686;16.584;2024-03-06T01:07:58;35.67;;;19.88;;
66575;SDS011;53428;47.686;16.584;2024-03-06T01:12:57;36.88;;;19.23;;
66575;SDS011;53428;47.686;16.584;2024-03-06T01:17:57;38.13;;;19.70;;
66575;SDS011;53428;47.686;16.584;2024-03-06T01:22:56;35.35;;;19.65;;
66575;SDS011;53428;47.686;16.584;2024-03-06T01:27:55;33.80;;;17.15;;
66575;SDS011;53428;47.686;16.584;2024-03-06T01:32:55;39.40;;;19.48;;
66575;SDS011;53428;47.686;16.584;2024-03-06T01:37:54;35.95;;;18.58;;
66575;SDS011;53428;47.686;16.584;2024-03-06T01:42:54;35.47;;;19.92;;
66575;SDS011;53428;47.686;16.584;2024-03-06T01:47:53;36.55;;;18.95;;
66575;SDS011;53428;47.686;16.584;2024-03-06T01:52:52;42.08;;;18.98;;
66575;SDS011;53428;47.686;16.584;2024-03-06T01:57:52;36.85;;;18.98;;
66575;SDS011;53428;47.686;16.584;2024-03-06T02:02:51;37.67;;;17.08;;
66575;SDS011;53428;47.686;16.584;2024-03-06T02:07:51;47.75;;;22.42;;
66575;SDS011;53428;47.686;16.584;2024-03-06T02:12:53;38.28;;;19.38;;
66575;SDS011;53428;47.686;16.584;2024-03-06T02:17:53;32.25;;;18.58;;
66575;SDS011;53428;47.686;16.584;2024-03-06T02:22:53;36.83;;;19.50;;
66575;SDS011;53428;47.686;16.584;2024-03-06T02:27:57;40.50;;;20.00;;
66575;SDS011;53428;47.686;16.584;2024-03-06T02:32:57;39.65;;;18.95;;
66575;SDS011;53428;47.686;16.584;2024-03-06T02:37:59;42.92;;;20.05;;
66575;SDS011;53428;47.686;16.584;2024-03-06T02:42:58;44.38;;;22.23;;
66575;SDS011;53428;47.686;16.584;2024-03-06T02:47:58;34.22;;;18.45;;
66575;SDS011;53428;47.686;16.584;2024-03-06T02:52:57;41.83;;;18.90;;
66575;SDS011;53428;47.686;16.584;2024-03-06T02:57:57;45.03;;;17.73;;
66575;SDS011;53428;47.686;16.584;2024-03-06T03:03:01;38.95;;;20.60;;
66575;SDS011;53428;47.686;16.584;2024-03-06T03:08:00;40.45;;;19.77;;
66575;SDS011;53428;47.686;16.584;2024-03-06T03:13:00;44.90;;;22.95;;
66575;SDS011;53428;47.686;16.584;2024-03-06T03:17:59;48.78;;;22.33;;
66575;SDS011;53428;47.686;16.584;2024-03-06T03:22:59;45.70;;;21.17;;
66575;SDS011;53428;47.686;16.584;2024-03-06T03:28:00;53.78;;;24.02;;
66575;SDS011;53428;47.686;16.584;2024-03-06T03:32:59;47.33;;;23.40;;
66575;SDS011;53428;47.686;16.584;2024-03-06T03:38:01;50.05;;;24.65;;
66575;SDS011;53428;47.686;16.584;2024-03-06T03:43:02;50.33;;;25.20;;
66575;SDS011;53428;47.686;16.584;2024-03-06T03:48:05;55.85;;;25.67;;
66575;SDS011;53428;47.686;16.584;2024-03-06T03:53:04;61.40;;;27.92;;
66575;SDS011;53428;47.686;16.584;2024-03-06T03:58:04;62.10;;;27.35;;
66575;SDS011;53428;47.686;16.584;2024-03-06T04:03:05;59.00;;;25.67;;
66575;SDS011;53428;47.686;16.584;2024-03-06T04:08:05;73.35;;;31.25;;
66575;SDS011;53428;47.686;16.584;2024-03-06T04:13:05;65.28;;;26.67;;
66575;SDS011;53428;47.686;16.584;2024-03-06T04:18:06;61.55;;;29.73;;
66575;SDS011;53428;47.686;16.584;2024-03-06T04:23:05;77.15;;;31.10;;
66575;SDS011;53428;47.686;16.584;2024-03-06T04:28:05;76.70;;;29.95;;
66575;SDS011;53428;47.686;16.584;2024-03-06T04:33:06;82.70;;;31.13;;
66575;SDS011;53428;47.686;16.584;2024-03-06T04:38:06;83.05;;;32.80;;
66575;SDS011;53428;47.686;16.584;2024-03-06T04:43:05;88.47;;;33.10;;
66575;SDS011;53428;47.686;16.584;2024-03-06T04:48:06;80.40;;;33.30;;
66575;SDS011;53428;47.686;16.584;2024-03-06T04:53:06;82.15;;;32.55;;
66575;SDS011;53428;47.686;16.584;2024-03-06T04:58:06;71.05;;;32.40;;
66575;SDS011;53428;47.686;16.584;2024-03-06T05:03:05;81.47;;;32.53;;
66575;SDS011;53428;47.686;16.584;2024-03-06T05:08:05;81.80;;;34.03;;
66575;SDS011;53428;47.686;16.584;2024-03-06T05:13:05;82.97;;;33.10;;
66575;SDS011;53428;47.686;16.584;2024-03-06T05:18:05;83.18;;;34.40;;
66575;SDS011;53428;47.686;16.584;2024-03-06T05:23:05;82.05;;;37.20;;
66575;SDS011;53428;47.686;16.584;2024-03-06T05:28:05;86.93;;;35.50;;
66575;SDS011;53428;47.686;16.584;2024-03-06T05:33:04;98.63;;;41.97;;
66575;SDS011;53428;47.686;16.584;2024-03-06T05:38:04;96.35;;;37.00;;
66575;SDS011;53428;47.686;16.584;2024-03-06T05:43:04;77.35;;;38.53;;
66575;SDS011;53428;47.686;16.584;2024-03-06T05:48:04;72.57;;;29.58;;
66575;SDS011;53428;47.686;16.584;2024-03-06T05:53:03;84.97;;;32.78;;
66575;SDS011;53428;47.686;16.584;2024-03-06T05:58:03;75.72;;;33.63;;
66575;SDS011;53428;47.686;16.584;2024-03-06T06:03:04;71.18;;;33.80;;
66575;SDS011;53428;47.686;16.584;2024-03-06T06:08:04;82.07;;;34.10;;
66575;SDS011;53428;47.686;16.584;2024-03-06T06:13:04;84.53;;;35.55;;
66575;SDS011;53428;47.686;16.584;2024-03-06T06:18:03;77.65;;;34.20;;
66575;SDS011;53428;47.686;16.584;2024-03-06T06:23:03;74.88;;;33.90;;
66575;SDS011;53428;47.686;16.584;2024-03-06T06:28:02;74.25;;;33.05;;
66575;SDS011;53428;47.686;16.584;2024-03-06T06:33:02;75.85;;;31.98;;
66575;SDS011;53428;47.686;16.584;2024-03-06T06:38:01;72.85;;;34.78;;
66575;SDS011;53428;47.686;16.584;2024-03-06T06:43:01;88.53;;;38.38;;
66575;SDS011;53428;47.686;16.584;2024-03-06T06:48:00;80.50;;;35.03;;
66575;SDS011;53428;47.686;16.584;2024-03-06T06:53:00;79.07;;;34.38;;
66575;SDS011;53428;47.686;16.584;2024-03-06T06:57:59;67.05;;;30.75;;
66575;SDS011;53428;47.686;16.584;2024-03-06T07:02:58;68.35;;;32.03;;
66575;SDS011;53428;47.686;16.584;2024-03-06T07:07:58;73.85;;;30.60;;
66575;SDS011;53428;47.686;16.584;2024-03-06T07:12:58;63.55;;;29.67;;
66575;SDS011;53428;47.686;16.584;2024-03-06T07:17:57;60.60;;;31.73;;
66575;SDS011;53428;47.686;16.584;2024-03-06T07:22:57;65.93;;;31.63;;
66575;SDS011;53428;47.686;16.584;2024-03-06T07:27:56;65.20;;;27.88;;
66575;SDS011;53428;47.686;16.584;2024-03-06T07:32:56;67.20;;;27.23;;
66575;SDS011;53428;47.686;16.584;2024-03-06T07:37:56;85.78;;;32.53;;
66575;SDS011;53428;47.686;16.584;2024-03-06T07:42:55;54.42;;;25.92;;
66575;SDS011;53428;47.686;16.584;2024-03-06T07:47:54;63.17;;;27.55;;
66575;SDS011;53428;47.686;16.584;2024-03-06T07:52:54;62.92;;;27.85;;
66575;SDS011;53428;47.686;16.584;2024-03-06T07:57:54;61.75;;;26.48;;
66575;SDS011;53428;47.686;16.584;2024-03-06T08:02:53;58.47;;;28.10;;
66575;SDS011;53428;47.686;16.584;2024-03-06T08:07:52;55.85;;;27.15;;
66575;SDS011;53428;47.686;16.584;2024-03-06T08:12:52;69.15;;;29.88;;
66575;SDS011;53428;47.686;16.584;2024-03-06T08:17:51;57.13;;;28.00;;
66575;SDS011;53428;47.686;16.584;2024-03-06T08:22:51;48.83;;;28.25;;
66575;SDS011;53428;47.686;16.584;2024-03-06T08:27:50;52.55;;;25.60;;
66575;SDS011;53428;47.686;16.584;2024-03-06T08:32:50;65.95;;;27.33;;
66575;SDS011;53428;47.686;16.584;2024-03-06T08:37:50;51.40;;;26.73;;
66575;SDS011;53428;47.686;16.584;2024-03-06T08:42:49;53.60;;;24.52;;
66575;SDS011;53428;47.686;16.584;2024-03-06T08:47:49;50.60;;;24.48;;
66575;SDS011;53428;47.686;16.584;2024-03-06T08:52:48;45.33;;;22.98;;
66575;SDS011;53428;47.686;16.584;2024-03-06T08:57:48;54.80;;;24.77;;
66575;SDS011;53428;47.686;16.584;2024-03-06T09:02:49;41.90;;;22.48;;
66575;SDS011;53428;47.686;16.584;2024-03-06T09:07:48;42.47;;;22.63;;
66575;SDS011;53428;47.686;16.584;2024-03-06T09:12:48;51.00;;;22.92;;
66575;SDS011;53428;47.686;16.584;2024-03-06T09:17:47;40.30;;;21.40;;
66575;SDS011;53428;47.686;16.584;2024-03-06T09:22:47;52.65;;;24.25;;
66575;SDS011;53428;47.686;16.584;2024-03-06T09:27:47;41.83;;;22.38;;
66575;SDS011;53428;47.686;16.584;2024-03-06T09:32:47;43.53;;;24.85;;
66575;SDS011;53428;47.686;16.584;2024-03-06T09:37:46;41.08;;;20.95;;
66575;SDS011;53428;47.686;16.584;2024-03-06T09:42:45;37.10;;;19.48;;
66575;SDS011;53428;47.686;16.584;2024-03-06T09:47:45;39.78;;;19.52;;
66575;SDS011;53428;47.686;16.584;2024-03-06T09:52:45;39.97;;;21.40;;
66575;SDS011;53428;47.686;16.584;2024-03-06T09:57:47;38.33;;;20.52;;
66575;SDS011;53428;47.686;16.584;2024-03-06T10:02:51;40.67;;;20.52;;
66575;SDS011;53428;47.686;16.584;2024-03-06T10:07:56;29.83;;;17.58;;
66575;SDS011;53428;47.686;16.584;2024-03-06T10:12:55;35.92;;;19.20;;
66575;SDS011;53428;47.686;16.584;2024-03-06T10:18:12;31.70;;;19.35;;
66575;SDS011;53428;47.686;16.584;2024-03-06T10:23:16;31.45;;;19.13;;
66575;SDS011;53428;47.686;16.584;2024-03-06T10:28:17;36.83;;;19.48;;
66575;SDS011;53428;47.686;16.584;2024-03-06T10:33:18;33.72;;;19.45;;
66575;SDS011;53428;47.686;16.584;2024-03-06T10:38:19;30.95;;;17.83;;
66575;SDS011;53428;47.686;16.584;2024-03-06T10:43:19;33.40;;;16.65;;
66575;SDS011;53428;47.686;16.584;2024-03-06T10:48:20;35.40;;;17.48;;
66575;SDS011;53428;47.686;16.584;2024-03-06T10:53:19;28.00;;;17.73;;
66575;SDS011;53428;47.686;16.584;2024-03-06T10:58:20;29.08;;;15.52;;
66575;SDS011;53428;47.686;16.584;2024-03-06T11:03:20;29.85;;;16.02;;
66575;SDS011;53428;47.686;16.584;2024-03-06T11:08:19;33.30;;;18.52;;
66575;SDS011;53428;47.686;16.584;2024-03-06T11:23:30;32.30;;;17.55;;
66575;SDS011;53428;47.686;16.584;2024-03-06T11:28:31;35.03;;;18.58;;
66575;SDS011;53428;47.686;16.584;2024-03-06T11:33:39;30.15;;;18.55;;
66575;SDS011;53428;47.686;16.584;2024-03-06T11:38:42;32.50;;;18.02;;
66575;SDS011;53428;47.686;16.584;2024-03-06T11:43:45;30.95;;;18.25;;
66575;SDS011;53428;47.686;16.584;2024-03-06T11:48:53;34.28;;;18.50;;
66575;SDS011;53428;47.686;16.584;2024-03-06T11:53:53;29.70;;;17.77;;
66575;SDS011;53428;47.686;16.584;2024-03-06T11:58:53;26.65;;;17.65;;
66575;SDS011;53428;47.686;16.584;2024-03-06T12:03:52;29.08;;;18.42;;
66575;SDS011;53428;47.686;16.584;2024-03-06T12:08:53;30.23;;;18.58;;
66575;SDS011;53428;47.686;16.584;2024-03-06T12:13:52;28.33;;;17.40;;
66575;SDS011;53428;47.686;16.584;2024-03-06T12:18:55;26.02;;;16.30;;
66575;SDS011;53428;47.686;16.584;2024-03-06T12:24:07;25.58;;;15.75;;
66575;SDS011;53428;47.686;16.584;2024-03-06T12:29:08;21.65;;;14.55;;
66575;SDS011;53428;47.686;16.584;2024-03-06T12:34:13;29.83;;;16.20;;
66575;SDS011;53428;47.686;16.584;2024-03-06T12:39:15;23.55;;;14.02;;
66575;SDS011;53428;47.686;16.584;2024-03-06T12:44:17;19.33;;;13.35;;
66575;SDS011;53428;47.686;16.584;2024-03-06T12:49:18;24.88;;;14.55;;
66575;SDS011;53428;47.686;16.584;2024-03-06T12:54:17;26.88;;;15.13;;
66575;SDS011;53428;47.686;16.584;2024-03-06T12:59:18;22.33;;;15.02;;
66575;SDS011;53428;47.686;16.584;2024-03-06T13:04:17;23.08;;;14.95;;
66575;SDS011;53428;47.686;16.584;2024-03-06T13:09:17;23.75;;;13.85;;
66575;SDS011;53428;47.686;16.584;2024-03-06T13:14:16;22.02;;;14.85;;
66575;SDS011;53428;47.686;16.584;2024-03-06T13:19:15;24.13;;;15.40;;
66575;SDS011;53428;47.686;16.584;2024-03-06T13:24:14;24.00;;;14.05;;
66575;SDS011;53428;47.686;16.584;2024-03-06T13:29:14;25.02;;;15.35;;
66575;SDS011;53428;47.686;16.584;2024-03-06T13:34:13;22.42;;;14.38;;
66575;SDS011;53428;47.686;16.584;2024-03-06T13:39:12;23.25;;;16.10;;
66575;SDS011;53428;47.686;16.584;2024-03-06T13:44:12;27.20;;;15.13;;
66575;SDS011;53428;47.686;16.584;2024-03-06T13:49:22;25.38;;;14.30;;
66575;SDS011;53428;47.686;16.584;2024-03-06T13:59:33;26.30;;;16.73;;
66575;SDS011;53428;47.686;16.584;2024-03-06T14:04:33;31.55;;;16.45;;
66575;SDS011;53428;47.686;16.584;2024-03-06T14:09:32;25.80;;;16.77;;
66575;SDS011;53428;47.686;16.584;2024-03-06T14:14:32;28.40;;;17.88;;
66575;SDS011;53428;47.686;16.584;2024-03-06T14:19:31;40.35;;;16.40;;
66575;SDS011;53428;47.686;16.584;2024-03-06T14:24:30;26.90;;;18.00;;
66575;SDS011;53428;47.686;16.584;2024-03-06T14:29:30;32.80;;;17.15;;
66575;SDS011;53428;47.686;16.584;2024-03-06T14:34:29;25.98;;;16.05;;
66575;SDS011;53428;47.686;16.584;2024-03-06T14:39:28;33.72;;;18.23;;
66575;SDS011;53428;47.686;16.584;2024-03-06T14:44:27;34.40;;;18.52;;
66575;SDS011;53428;47.686;16.584;2024-03-06T14:49:27;32.38;;;17.00;;
66575;SDS011;53428;47.686;16.584;2024-03-06T14:54:27;30.80;;;17.52;;
66575;SDS011;53428;47.686;16.584;2024-03-06T14:59:27;24.58;;;15.27;;
66575;SDS011;53428;47.686;16.584;2024-03-06T15:04:26;35.90;;;18.05;;
66575;SDS011;53428;47.686;16.584;2024-03-06T15:09:25;37.83;;;19.73;;
66575;SDS011;53428;47.686;16.584;2024-03-06T15:14:25;34.55;;;18.33;;
66575;SDS011;53428;47.686;16.584;2024-03-06T15:19:24;32.58;;;19.23;;
66575;SDS011;53428;47.686;16.584;2024-03-06T15:24:23;34.72;;;18.17;;
66575;SDS011;53428;47.686;16.584;2024-03-06T15:29:23;28.98;;;15.23;;
66575;SDS011;53428;47.686;16.584;2024-03-06T15:34:22;28.80;;;15.45;;
66575;SDS011;53428;47.686;16.584;2024-03-06T15:39:21;27.10;;;14.80;;
66575;SDS011;53428;47.686;16.584;2024-03-06T15:44:21;29.90;;;16.00;;
66575;SDS011;53428;47.686;16.584;2024-03-06T15:49:21;25.23;;;14.60;;
66575;SDS011;53428;47.686;16.584;2024-03-06T15:54:24;30.77;;;15.73;;
66575;SDS011;53428;47.686;16.584;2024-03-06T15:59:24;28.02;;;14.77;;
66575;SDS011;53428;47.686;16.584;2024-03-06T16:04:23;34.13;;;15.90;;
66575;SDS011;53428;47.686;16.584;2024-03-06T16:09:22;31.35;;;15.50;;
66575;SDS011;53428;47.686;16.584;2024-03-06T16:14:21;29.85;;;14.40;;
66575;SDS011;53428;47.686;16.584;2024-03-06T16:19:21;23.85;;;12.88;;
66575;SDS011;53428;47.686;16.584;2024-03-06T16:24:22;28.67;;;14.95;;
66575;SDS011;53428;47.686;16.584;2024-03-06T16:29:21;30.42;;;15.45;;
66575;SDS011;53428;47.686;16.584;2024-03-06T16:39:45;31.60;;;15.05;;
66575;SDS011;53428;47.686;16.584;2024-03-06T16:44:46;23.67;;;13.52;;
66575;SDS011;53428;47.686;16.584;2024-03-06T16:49:46;29.95;;;14.13;;
66575;SDS011;53428;47.686;16.584;2024-03-06T16:54:45;33.00;;;14.88;;
66575;SDS011;53428;47.686;16.584;2024-03-06T16:59:45;28.73;;;14.52;;
66575;SDS011;53428;47.686;16.584;2024-03-06T17:04:44;26.55;;;13.70;;
66575;SDS011;53428;47.686;16.584;2024-03-06T17:09:43;26.25;;;13.57;;
66575;SDS011;53428;47.686;16.584;2024-03-06T17:14:43;35.70;;;16.40;;
66575;SDS011;53428;47.686;16.584;2024-03-06T17:19:42;46.33;;;18.25;;
66575;SDS011;53428;47.686;16.584;2024-03-06T17:24:43;40.17;;;17.20;;
66575;SDS011;53428;47.686;16.584;2024-03-06T17:29:43;46.83;;;19.00;;
66575;SDS011;53428;47.686;16.584;2024-03-06T17:34:42;42.30;;;17.52;;
66575;SDS011;53428;47.686;16.584;2024-03-06T17:39:41;35.72;;;16.98;;
66575;SDS011;53428;47.686;16.584;2024-03-06T17:44:41;32.30;;;15.90;;
66575;SDS011;53428;47.686;16.584;2024-03-06T17:49:40;31.77;;;15.27;;
66575;SDS011;53428;47.686;16.584;2024-03-06T17:54:40;37.30;;;16.65;;
66575;SDS011;53428;47.686;16.584;2024-03-06T17:59:39;33.60;;;15.57;;
66575;SDS011;53428;47.686;16.584;2024-03-06T18:04:38;33.40;;;17.85;;
66575;SDS011;53428;47.686;16.584;2024-03-06T18:09:38;29.88;;;16.15;;
66575;SDS011;53428;47.686;16.584;2024-03-06T18:14:37;30.13;;;14.45;;
66575;SDS011;53428;47.686;16.584;2024-03-06T18:19:36;30.85;;;15.70;;
66575;SDS011;53428;47.686;16.584;2024-03-06T18:24:36;30.48;;;14.35;;
66575;SDS011;53428;47.686;16.584;2024-03-06T18:29:35;28.50;;;15.40;;
66575;SDS011;53428;47.686;16.584;2024-03-06T18:34:35;32.65;;;15.07;;
66575;SDS011;53428;47.686;16.584;2024-03-06T18:39:35;30.50;;;14.85;;
66575;SDS011;53428;47.686;16.584;2024-03-06T18:44:34;34.40;;;16.75;;
66575;SDS011;53428;47.686;16.584;2024-03-06T18:49:34;31.63;;;14.93;;
66575;SDS011;53428;47.686;16.584;2024-03-06T18:54:33;29.90;;;14.85;;
66575;SDS011;53428;47.686;16.584;2024-03-06T18:59:33;31.98;;;15.10;;
66575;SDS011;53428;47.686;16.584;2024-03-06T19:04:32;33.80;;;15.73;;
66575;SDS011;53428;47.686;16.584;2024-03-06T19:09:33;34.45;;;16.02;;
66575;SDS011;53428;47.686;16.584;2024-03-06T19:14:32;44.00;;;16.05;;
66575;SDS011;53428;47.686;16.584;2024-03-06T19:19:32;30.20;;;15.25;;
66575;SDS011;53428;47.686;16.584;2024-03-06T19:24:31;26.25;;;14.98;;
66575;SDS011;53428;47.686;16.584;2024-03-06T19:29:31;33.13;;;16.92;;
66575;SDS011;53428;47.686;16.584;2024-03-06T19:34:31;31.85;;;16.33;;
66575;SDS011;53428;47.686;16.584;2024-03-06T19:39:32;27.27;;;15.00;;
66575;SDS011;53428;47.686;16.584;2024-03-06T19:44:32;27.20;;;12.38;;
66575;SDS011;53428;47.686;16.584;2024-03-06T19:49:32;24.00;;;14.15;;
66575;SDS011;53428;47.686;16.584;2024-03-06T19:54:33;27.30;;;13.68;;
66575;SDS011;53428;47.686;16.584;2024-03-06T19:59:35;36.92;;;15.50;;
66575;SDS011;53428;47.686;16.584;2024-03-06T20:04:34;28.20;;;13.88;;
66575;SDS011;53428;47.686;16.584;2024-03-06T20:09:34;25.88;;;14.63;;
66575;SDS011;53428;47.686;16.584;2024-03-06T20:14:34;30.88;;;14.63;;
66575;SDS011;53428;47.686;16.584;2024-03-06T20:19:34;29.05;;;14.77;;
66575;SDS011;53428;47.686;16.584;2024-03-06T20:24:33;27.95;;;14.25;;
66575;SDS011;53428;47.686;16.584;2024-03-06T20:29:33;25.58;;;13.68;;
66575;SDS011;53428;47.686;16.584;2024-03-06T20:34:32;27.30;;;13.82;;
66575;SDS011;53428;47.686;16.584;2024-03-06T20:39:32;29.00;;;15.25;;
66575;SDS011;53428;47.686;16.584;2024-03-06T20:44:34;27.55;;;14.93;;
66575;SDS011;53428;47.686;16.584;2024-03-06T20:49:34;30.38;;;14.88;;
66575;SDS011;53428;47.686;16.584;2024-03-06T20:54:33;29.30;;;14.68;;
66575;SDS011;53428;47.686;16.584;2024-03-06T20:59:32;28.45;;;15.57;;
66575;SDS011;53428;47.686;16.584;2024-03-06T21:04:32;28.05;;;15.57;;
66575;SDS011;53428;47.686;16.584;2024-03-06T21:09:31;29.13;;;15.93;;
66575;SDS011;53428;47.686;16.584;2024-03-06T21:14:31;29.58;;;16.75;;
66575;SDS011;53428;47.686;16.584;2024-03-06T21:19:35;26.20;;;15.52;;
66575;SDS011;53428;47.686;16.584;2024-03-06T21:24:35;37.45;;;15.02;;
66575;SDS011;53428;47.686;16.584;2024-03-06T21:29:36;30.42;;;16.10;;
66575;SDS011;53428;47.686;16.584;2024-03-06T21:34:36;25.85;;;16.17;;
66575;SDS011;53428;47.686;16.584;2024-03-06T21:39:35;30.48;;;15.32;;
66575;SDS011;53428;47.686;16.584;2024-03-06T21:44:35;24.13;;;14.00;;
66575;SDS011;53428;47.686;16.584;2024-03-06T21:49:34;26.83;;;15.15;;
66575;SDS011;53428;47.686;16.584;2024-03-06T21:54:34;28.20;;;15.10;;
66575;SDS011;53428;47.686;16.584;2024-03-06T21:59:33;27.60;;;14.57;;
66575;SDS011;53428;47.686;16.584;2024-03-06T22:04:32;24.23;;;14.88;;
66575;SDS011;53428;47.686;16.584;2024-03-06T22:09:32;28.15;;;16.63;;
66575;SDS011;53428;47.686;16.584;2024-03-06T22:14:33;33.30;;;15.38;;
66575;SDS011;53428;47.686;16.584;2024-03-06T22:19:32;28.88;;;16.13;;
66575;SDS011;53428;47.686;16.584;2024-03-06T22:24:31;28.02;;;15.35;;
66575;SDS011;53428;47.686;16.584;2024-03-06T22:29:31;31.48;;;15.90;;
66575;SDS011;53428;47.686;16.584;2024-03-06T22:34:30;29.85;;;15.27;;
66575;SDS011;53428;47.686;16.584;2024-03-06T22:39:29;26.15;;;15.85;;
66575;SDS011;53428;47.686;16.584;2024-03-06T22:44:29;34.53;;;15.32;;
66575;SDS011;53428;47.686;16.584;2024-03-06T22:49:28;21.77;;;14.52;;
66575;SDS011;53428;47.686;16.584;2024-03-06T22:54:27;28.27;;;15.70;;
66575;SDS011;53428;47.686;16.584;2024-03-06T22:59:27;27.08;;;16.42;;
66575;SDS011;53428;47.686;16.584;2024-03-06T23:04:26;27.20;;;15.52;;
66575;SDS011;53428;47.686;16.584;2024-03-06T23:09:25;29.50;;;15.75;;
66575;SDS011;53428;47.686;16.584;2024-03-06T23:14:24;25.77;;;13.65;;
66575;SDS011;53428;47.686;16.584;2024-03-06T23:19:24;27.58;;;14.63;;
66575;SDS011;53428;47.686;16.584;2024-03-06T23:24:23;21.95;;;14.25;;
66575;SDS011;53428;47.686;16.584;2024-03-06T23:29:23;24.52;;;13.80;;
66575;SDS011;53428;47.686;16.584;2024-03-06T23:34:22;22.15;;;13.02;;
66575;SDS011;53428;47.686;16.584;2024-03-06T23:39:21;23.80;;;14.27;;
66575;SDS011;53428;47.686;16.584;2024-03-06T23:44:20;23.20;;;13.90;;
66575;SDS011;53428;47.686;16.584;2024-03-06T23:49:20;23.23;;;12.02;;
66575;SDS011;53428;47.686;16.584;2024-03-06T23:54:20;21.02;;;12.48;;
66575;SDS011;53428;47.686;16.584;2024-03-06T23:59:20;21.33;;;12.13;;
